Time;durP1;ratioP1;P1;durP2;ratioP2;P2;SDS_P1;SDS_P2;PMS_P1;PMS_P2;Temp;Humidity;BMP_temperature;BMP_pressure;BME280_temperature;BME280_humidity;BME280_pressure;Samples;Min_cycle;Max_cycle;Signal;HPM_P1;HPM_P2
2022/01/08 00:00:42;;;;;;;13.77;8.63;;;;;;;2.43;91.79;100433.03;5030455;28;20093;-81
2022/01/08 00:03:08;;;;;;;16.20;8.60;;;;;;;2.42;92.14;100431.38;5035243;28;20109;-80
2022/01/08 00:05:38;;;;;;;14.70;8.40;;;;;;;2.59;92.48;100436.19;5032675;28;20053;-81
2022/01/08 00:08:05;;;;;;;17.17;9.90;;;;;;;2.48;92.66;100431.78;5031054;28;20093;-79
2022/01/08 00:10:32;;;;;;;15.52;9.05;;;;;;;2.61;92.44;100429.16;5022618;28;20488;-81
2022/01/08 00:13:02;;;;;;;12.73;7.78;;;;;;;2.48;93.04;100426.59;5021365;28;20093;-81
2022/01/08 00:15:29;;;;;;;12.48;8.50;;;;;;;2.44;92.91;100426.94;5019742;28;20073;-82
2022/01/08 00:17:56;;;;;;;11.35;7.47;;;;;;;2.47;93.10;100426.72;5020400;28;20470;-81
2022/01/08 00:20:23;;;;;;;11.27;7.53;;;;;;;2.46;94.21;100425.88;5020819;28;20109;-81
2022/01/08 00:22:52;;;;;;;15.48;8.18;;;;;;;2.54;93.27;100425.34;5019541;28;20061;-81
2022/01/08 00:25:19;;;;;;;11.27;7.13;;;;;;;2.55;93.95;100429.59;5019567;28;20058;-81
2022/01/08 00:27:48;;;;;;;8.57;5.68;;;;;;;2.58;93.35;100424.19;5019572;28;20245;-79
2022/01/08 00:30:15;;;;;;;11.00;5.47;;;;;;;2.60;93.23;100428.31;5019831;28;20117;-82
2022/01/08 00:32:43;;;;;;;8.75;5.88;;;;;;;2.62;93.83;100428.22;5019140;28;20109;-81
2022/01/08 00:35:13;;;;;;;10.35;5.28;;;;;;;2.63;93.07;100433.28;5019902;28;20476;-81
2022/01/08 00:37:40;;;;;;;10.00;5.32;;;;;;;2.65;92.89;100425.41;5019544;28;20565;-80
2022/01/08 00:40:09;;;;;;;11.18;5.07;;;;;;;2.63;93.01;100432.44;5019058;28;20140;-80
2022/01/08 00:42:36;;;;;;;8.82;4.90;;;;;;;2.65;92.33;100440.91;5020380;28;20109;-81
2022/01/08 00:45:03;;;;;;;6.80;5.30;;;;;;;2.60;92.49;100443.00;5020289;28;20102;-81
2022/01/08 00:47:30;;;;;;;11.45;6.43;;;;;;;2.68;91.97;100438.09;5019617;28;20050;-81
2022/01/08 00:50:05;;;;;;;14.48;6.57;;;;;;;2.57;92.49;100431.13;5019348;28;20096;-79
2022/01/08 00:52:32;;;;;;;11.48;7.03;;;;;;;2.68;92.10;100435.53;5020063;28;20065;-80
2022/01/08 00:54:58;;;;;;;9.52;6.05;;;;;;;2.64;92.34;100436.69;5022141;28;20465;-81
2022/01/08 00:57:25;;;;;;;11.57;7.20;;;;;;;2.74;91.94;100439.44;5029034;28;20042;-79
2022/01/08 00:59:52;;;;;;;9.77;5.95;;;;;;;2.77;91.39;100445.19;5022490;28;20054;-79
2022/01/08 01:02:18;;;;;;;9.15;6.47;;;;;;;2.78;91.54;100444.28;5021118;28;20093;-79
2022/01/08 01:04:45;;;;;;;10.18;6.05;;;;;;;2.87;91.45;100447.91;5023301;28;20128;-83
2022/01/08 01:07:13;;;;;;;12.73;6.30;;;;;;;2.79;91.46;100455.44;5021453;28;20077;-80
2022/01/08 01:09:40;;;;;;;11.10;6.50;;;;;;;2.86;91.58;100446.28;5021709;28;20104;-82
2022/01/08 01:19:11;;;;;;;15.68;7.07;;;;;;;2.94;90.22;100456.88;4982562;28;20055;-81
2022/01/08 01:22:20;;;;;;;10.65;6.60;;;;;;;2.90;90.49;100451.09;5021217;28;20042;-81
2022/01/08 01:25:05;;;;;;;11.13;6.15;;;;;;;2.88;90.50;100450.41;5018017;28;20053;-80
2022/01/08 01:42:04;;;;;;;;;;;;;;;;;;;;;
2022/01/08 01:47:33;;;;;;;9.38;5.38;;;;;;;2.18;92.59;100470.91;5017665;28;20111;-81
2022/01/08 01:50:36;;;;;;;10.85;5.75;;;;;;;1.96;93.45;100456.06;5017978;28;20144;-82
2022/01/08 01:53:11;;;;;;;10.40;6.45;;;;;;;1.97;93.40;100470.63;5013170;28;20077;-79
2022/01/08 01:58:59;;;;;;;10.70;6.55;;;;;;;1.69;94.05;100452.81;5003972;28;20539;-79
2022/01/08 02:01:48;;;;;;;18.85;6.40;;;;;;;1.68;94.51;100464.06;5017957;28;20050;-79
2022/01/08 02:11:32;;;;;;;10.32;5.82;;;;;;;1.56;94.66;100457.94;4958956;29;20047;-81
2022/01/08 02:14:27;;;;;;;13.85;6.15;;;;;;;1.55;94.70;100458.88;4958575;29;20090;-82
2022/01/08 02:17:08;;;;;;;13.90;6.50;;;;;;;1.38;95.08;100438.56;4958685;29;20059;-82
2022/01/08 02:19:49;;;;;;;15.85;6.55;;;;;;;1.51;94.79;100462.59;4985033;28;20054;-82
2022/01/08 02:22:27;;;;;;;14.80;7.40;;;;;;;1.52;94.99;100476.31;5019455;28;20460;-82
2022/01/08 02:24:58;;;;;;;14.50;6.80;;;;;;;1.43;95.17;100461.44;5019212;28;20504;-82
2022/01/08 02:30:31;;;;;;;12.88;6.93;;;;;;;1.31;95.56;100468.25;5018282;28;20086;-81
2022/01/08 02:33:04;;;;;;;16.50;6.97;;;;;;;1.30;95.33;100466.59;5019002;28;20054;-79
2022/01/08 02:35:30;;;;;;;12.43;7.53;;;;;;;1.21;95.92;100465.44;5028387;23;20050;-82
2022/01/08 02:37:59;;;;;;;15.95;8.02;;;;;;;1.20;95.60;100473.28;4995819;28;20596;-80
2022/01/08 02:40:25;;;;;;;18.85;8.95;;;;;;;1.19;95.89;100471.63;4997054;28;20426;-80
2022/01/08 02:43:00;;;;;;;18.30;7.97;;;;;;;1.19;95.95;100474.22;4997488;28;20043;-82
2022/01/08 02:45:27;;;;;;;19.55;9.73;;;;;;;1.14;95.99;100474.50;4997390;28;20073;-82
2022/01/08 02:47:55;;;;;;;15.18;8.95;;;;;;;1.12;95.98;100473.78;4998018;28;20109;-82
2022/01/08 02:50:22;;;;;;;19.48;9.50;;;;;;;1.16;96.18;100475.22;4998514;28;20074;-80
2022/01/08 02:52:49;;;;;;;20.27;8.98;;;;;;;1.12;95.94;100480.69;4997863;28;20164;-80
2022/01/08 02:55:19;;;;;;;20.13;9.38;;;;;;;1.13;96.14;100479.75;4999272;28;20082;-81
2022/01/08 02:57:46;;;;;;;17.88;9.15;;;;;;;1.13;96.06;100472.03;5002863;28;20074;-80
2022/01/08 03:00:16;;;;;;;18.50;9.10;;;;;;;1.16;96.28;100475.22;5003679;28;20515;-81
2022/01/08 03:02:43;;;;;;;23.15;11.45;;;;;;;1.12;96.19;100467.81;4997539;28;20424;-80
2022/01/08 03:05:11;;;;;;;20.30;10.68;;;;;;;1.14;96.00;100471.09;4997374;28;20082;-80
2022/01/08 03:07:38;;;;;;;20.08;9.68;;;;;;;1.03;96.01;100468.38;4996793;28;20057;-81
2022/01/08 03:10:05;;;;;;;17.60;9.43;;;;;;;1.10;95.98;100474.81;4997563;28;20132;-80
2022/01/08 03:12:33;;;;;;;17.88;10.25;;;;;;;1.06;96.35;100481.06;4998323;28;20081;-81
2022/01/08 03:15:00;;;;;;;20.67;9.88;;;;;;;1.09;96.14;100488.59;4999491;28;20058;-80
2022/01/08 03:17:26;;;;;;;16.67;10.48;;;;;;;1.08;96.07;100490.38;4998799;28;20130;-81
2022/01/08 03:19:59;;;;;;;18.70;11.05;;;;;;;1.07;95.78;100493.03;5004505;28;20142;-81
2022/01/08 03:22:28;;;;;;;;;;;;;;;1.14;95.93;100502.03;4998816;28;20054;-81
2022/01/08 03:24:54;;;;;;;20.23;10.57;;;;;;;1.09;95.79;100501.50;4998346;28;19941;-81
2022/01/08 03:27:21;;;;;;;18.50;9.50;;;;;;;1.11;96.10;100505.63;4997261;28;20062;-81
2022/01/08 03:29:49;;;;;;;19.15;9.30;;;;;;;1.10;96.09;100510.88;4996627;28;20074;-81
2022/01/08 03:32:16;;;;;;;13.32;8.15;;;;;;;1.07;95.72;100505.91;4997266;28;20066;-82
2022/01/08 03:34:43;;;;;;;16.00;8.95;;;;;;;1.06;95.93;100510.25;4997853;28;20074;-80
2022/01/08 03:37:09;;;;;;;18.83;9.50;;;;;;;1.08;95.33;100505.81;4997421;28;20094;-82
2022/01/08 03:39:36;;;;;;;21.95;10.32;;;;;;;1.08;95.69;100520.47;4997192;28;20129;-82
2022/01/08 03:42:03;;;;;;;24.98;10.57;;;;;;;1.08;95.85;100523.03;4998297;28;20129;-82
2022/01/08 03:44:30;;;;;;;21.08;10.85;;;;;;;1.06;95.91;100519.72;4998133;28;20074;-82
2022/01/08 03:47:21;;;;;;;19.35;9.70;;;;;;;0.98;96.05;100531.34;4998932;28;20110;-82
2022/01/08 03:49:44;;;;;;;18.88;10.55;;;;;;;0.91;96.45;100531.84;4999171;28;20472;-83
2022/01/08 03:52:12;;;;;;;23.50;12.23;;;;;;;0.91;96.30;100522.38;5001064;28;20086;-82
2022/01/08 03:54:39;;;;;;;22.48;12.48;;;;;;;0.90;96.68;100531.03;5001360;28;20050;-82
2022/01/08 03:57:07;;;;;;;23.00;12.88;;;;;;;0.91;96.76;100535.25;5001149;28;20089;-81
2022/01/08 03:59:34;;;;;;;25.95;14.32;;;;;;;0.90;96.78;100525.06;5000717;28;20077;-81
2022/01/08 04:02:03;;;;;;;24.67;15.48;;;;;;;0.88;96.66;100532.06;5001205;28;20070;-81
2022/01/08 04:04:29;;;;;;;27.60;15.75;;;;;;;0.89;97.09;100534.53;4999927;28;20097;-81
2022/01/08 04:06:56;;;;;;;28.13;15.98;;;;;;;0.84;97.10;100541.72;5000934;28;20073;-81
2022/01/08 04:09:22;;;;;;;34.30;16.73;;;;;;;0.88;96.77;100543.19;5000111;28;20479;-81
2022/01/08 04:11:50;;;;;;;28.90;16.88;;;;;;;0.84;97.05;100546.88;4999641;28;20110;-81
2022/01/08 04:14:18;;;;;;;33.60;16.33;;;;;;;0.83;97.00;100545.22;5000099;28;20061;-81
2022/01/08 04:16:48;;;;;;;32.75;17.27;;;;;;;0.79;96.93;100551.47;5001160;28;20056;-81
2022/01/08 04:19:19;;;;;;;31.23;17.52;;;;;;;0.83;97.23;100560.66;5003416;28;20046;-82
2022/01/08 04:22:09;;;;;;;31.63;17.13;;;;;;;0.82;96.93;100551.28;5005293;28;20565;-82
2022/01/08 04:24:36;;;;;;;32.05;16.55;;;;;;;0.77;96.88;100561.06;5004175;28;20109;-83
2022/01/08 04:27:02;;;;;;;29.08;17.80;;;;;;;0.80;97.05;100571.16;5002687;28;20372;-83
2022/01/08 04:29:29;;;;;;;28.13;17.05;;;;;;;0.80;97.22;100580.63;5000647;28;20110;-80
2022/01/08 04:31:56;;;;;;;32.70;19.38;;;;;;;0.84;97.28;100571.81;5002502;28;20046;-80
2022/01/08 04:34:23;;;;;;;32.67;19.33;;;;;;;0.84;97.40;100564.91;5009207;28;20089;-80
2022/01/08 04:36:50;;;;;;;34.28;19.65;;;;;;;0.82;97.30;100569.31;5002263;28;20499;-81
2022/01/08 04:39:17;;;;;;;35.95;20.73;;;;;;;0.79;97.39;100584.97;5008769;28;20109;-80
2022/01/08 04:41:44;;;;;;;40.15;22.95;;;;;;;0.79;97.13;100574.66;5012005;28;20114;-82
2022/01/08 04:44:11;;;;;;;38.53;22.50;;;;;;;0.81;97.16;100580.53;5007456;28;20081;-82
2022/01/08 04:46:40;;;;;;;35.17;20.77;;;;;;;0.78;97.19;100582.47;4999766;28;20214;-82
2022/01/08 04:49:07;;;;;;;41.75;20.20;;;;;;;0.79;97.37;100579.81;4999747;28;20051;-82
2022/01/08 04:51:35;;;;;;;34.03;20.65;;;;;;;0.86;96.91;100581.09;5006075;28;20049;-81
2022/01/08 04:54:02;;;;;;;34.78;19.45;;;;;;;0.84;96.75;100579.53;5001276;28;20539;-81
2022/01/08 04:56:28;;;;;;;38.85;20.40;;;;;;;0.80;96.88;100584.03;4998733;28;20129;-81
2022/01/08 04:58:55;;;;;;;37.35;19.98;;;;;;;0.85;97.10;100584.59;4998744;28;20153;-81
2022/01/08 05:01:22;;;;;;;44.85;21.73;;;;;;;0.86;96.67;100575.94;4998316;28;20568;-81
2022/01/08 05:03:49;;;;;;;39.85;21.20;;;;;;;0.86;96.85;100575.09;4999357;28;20051;-81
2022/01/08 05:06:16;;;;;;;43.63;21.08;;;;;;;0.83;97.05;100585.59;4998789;28;20153;-81
2022/01/08 05:08:44;;;;;;;38.13;21.75;;;;;;;0.85;96.67;100574.28;4998625;28;20050;-82
2022/01/08 05:11:10;;;;;;;43.53;22.40;;;;;;;0.76;96.86;100582.56;4999830;28;20141;-82
2022/01/08 05:13:38;;;;;;;37.63;20.23;;;;;;;0.69;96.97;100586.44;4999038;28;20062;-81
2022/01/08 05:16:05;;;;;;;37.80;20.58;;;;;;;0.69;97.16;100601.91;4999147;28;20054;-82
2022/01/08 05:18:33;;;;;;;38.92;21.52;;;;;;;0.63;97.05;100589.38;4998147;28;20050;-81
2022/01/08 05:21:10;;;;;;;41.97;21.63;;;;;;;0.69;97.33;100604.47;4999979;28;20310;-81
2022/01/08 05:23:37;;;;;;;56.72;24.15;;;;;;;0.62;97.13;100596.28;5000069;28;20054;-82
2022/01/08 05:26:05;;;;;;;51.50;26.55;;;;;;;0.60;97.22;100607.59;4999894;28;20135;-81
2022/01/08 05:28:32;;;;;;;50.33;24.58;;;;;;;0.58;97.63;100606.88;4999190;28;20149;-81
2022/01/08 05:30:59;;;;;;;41.40;22.20;;;;;;;0.56;97.50;100601.81;4999775;28;20129;-82
2022/01/08 05:33:25;;;;;;;43.08;22.23;;;;;;;0.57;97.37;100598.31;4998861;28;20082;-82
2022/01/08 05:35:52;;;;;;;42.90;22.90;;;;;;;0.56;97.61;100611.28;4999098;28;20560;-80
2022/01/08 05:38:19;;;;;;;36.45;20.48;;;;;;;0.56;97.28;100608.69;4999617;28;20137;-81
2022/01/08 05:40:46;;;;;;;36.75;21.35;;;;;;;0.58;97.27;100612.00;5000326;28;20050;-81
2022/01/08 05:43:14;;;;;;;37.25;20.73;;;;;;;0.48;97.66;100616.06;5000546;28;20050;-81
2022/01/08 05:45:40;;;;;;;42.92;21.75;;;;;;;0.53;97.81;100614.03;4998194;28;20081;-80
2022/01/08 05:48:08;;;;;;;44.67;21.55;;;;;;;0.48;97.30;100608.34;4999642;28;20084;-80
2022/01/08 05:50:35;;;;;;;46.58;23.30;;;;;;;0.44;97.45;100615.44;5006704;28;20061;-81
2022/01/08 05:53:01;;;;;;;42.60;22.13;;;;;;;0.46;97.56;100623.06;5009549;28;20054;-81
2022/01/08 05:55:28;;;;;;;40.42;21.10;;;;;;;0.47;97.63;100617.00;5007269;28;20082;-80
2022/01/08 05:57:55;;;;;;;40.97;22.15;;;;;;;0.44;97.15;100623.16;5006249;28;20058;-80
2022/01/08 06:00:23;;;;;;;44.75;22.17;;;;;;;0.43;97.68;100612.97;5000400;28;20110;-80
2022/01/08 06:02:49;;;;;;;39.85;21.98;;;;;;;0.39;97.75;100619.22;4999325;28;20141;-80
2022/01/08 06:05:16;;;;;;;46.28;23.48;;;;;;;0.33;97.43;100616.06;4997895;28;20480;-80
2022/01/08 06:07:43;;;;;;;45.80;23.42;;;;;;;0.30;97.60;100623.97;4998296;28;20086;-80
2022/01/08 06:10:10;;;;;;;45.70;23.27;;;;;;;0.22;97.88;100631.31;4999707;28;20109;-80
2022/01/08 06:12:36;;;;;;;41.47;23.15;;;;;;;0.20;97.84;100634.91;4998904;28;20125;-79
2022/01/08 06:15:04;;;;;;;49.40;24.52;;;;;;;0.14;97.77;100628.34;4999851;28;20073;-83
2022/01/08 06:17:32;;;;;;;43.95;24.15;;;;;;;0.16;97.61;100633.41;4998736;28;20134;-79
2022/01/08 06:19:58;;;;;;;43.90;23.65;;;;;;;0.21;98.20;100639.13;4999483;28;20129;-79
2022/01/08 06:22:25;;;;;;;48.75;23.38;;;;;;;0.24;98.01;100646.66;4999210;28;20081;-79
2022/01/08 06:24:52;;;;;;;40.28;22.38;;;;;;;0.28;97.74;100641.25;4998424;28;20078;-80
2022/01/08 06:27:18;;;;;;;41.08;23.17;;;;;;;0.33;97.73;100651.28;4998276;28;20133;-81
2022/01/08 06:29:45;;;;;;;44.42;23.52;;;;;;;0.35;97.94;100651.19;4999738;28;20050;-81
2022/01/08 06:32:14;;;;;;;49.97;24.33;;;;;;;0.33;98.12;100654.69;4999887;28;20086;-81
2022/01/08 06:34:42;;;;;;;44.28;21.90;;;;;;;0.38;97.69;100663.88;5003402;28;20073;-81
2022/01/08 06:37:09;;;;;;;42.53;22.15;;;;;;;0.33;97.56;100670.13;4999673;28;20130;-81
2022/01/08 06:39:36;;;;;;;38.38;20.92;;;;;;;0.25;97.80;100666.34;4998983;28;20088;-81
2022/01/08 06:42:03;;;;;;;42.90;21.23;;;;;;;0.27;98.08;100679.94;4997927;28;20119;-82
2022/01/08 06:44:30;;;;;;;45.45;21.27;;;;;;;0.28;98.45;100681.59;4998452;28;20563;-81
2022/01/08 06:46:56;;;;;;;44.72;21.88;;;;;;;0.31;98.08;100684.81;5002236;28;20109;-80
2022/01/08 06:49:23;;;;;;;42.60;21.15;;;;;;;0.32;97.92;100695.97;5001814;28;20549;-80
2022/01/08 06:51:51;;;;;;;40.15;21.52;;;;;;;0.31;97.81;100689.97;5002981;28;20097;-79
2022/01/08 06:54:18;;;;;;;38.80;21.08;;;;;;;0.30;98.32;100688.31;5002421;28;20080;-81
2022/01/08 06:56:44;;;;;;;44.15;21.45;;;;;;;0.34;98.02;100688.97;5000391;28;20124;-81
2022/01/08 06:59:11;;;;;;;39.42;21.88;;;;;;;0.33;98.05;100687.31;4998924;28;20062;-81
2022/01/08 07:01:38;;;;;;;41.40;21.50;;;;;;;0.34;98.31;100694.13;4999764;28;20104;-80
2022/01/08 07:04:05;;;;;;;42.40;20.75;;;;;;;0.35;97.95;100694.94;4998755;28;20086;-80
2022/01/08 07:06:32;;;;;;;44.03;21.35;;;;;;;0.32;98.22;100686.50;4996855;28;20057;-79
2022/01/08 07:09:00;;;;;;;43.72;22.08;;;;;;;0.42;98.30;100691.09;4996889;28;20050;-81
2022/01/08 07:11:26;;;;;;;45.70;21.65;;;;;;;0.34;98.02;100686.41;4997164;28;20465;-80
2022/01/08 07:13:53;;;;;;;38.15;20.58;;;;;;;0.28;97.92;100694.47;4999192;28;20050;-81
2022/01/08 07:16:19;;;;;;;45.22;21.40;;;;;;;0.33;98.03;100697.63;4999670;28;20051;-82
2022/01/08 07:18:46;;;;;;;45.13;23.08;;;;;;;0.28;98.30;100686.75;4987021;28;20058;-81
2022/01/08 07:21:13;;;;;;;43.92;22.00;;;;;;;0.24;97.88;100693.81;4979181;28;20551;-82
2022/01/08 07:23:39;;;;;;;42.95;21.17;;;;;;;0.27;98.35;100695.38;4998827;28;20131;-82
2022/01/08 07:26:07;;;;;;;40.22;21.25;;;;;;;0.21;98.32;100691.41;5001008;28;20207;-82
2022/01/08 07:28:34;;;;;;;45.13;21.40;;;;;;;0.19;98.48;100682.97;5000468;28;20103;-81
2022/01/08 07:31:03;;;;;;;42.30;23.13;;;;;;;0.29;98.58;100688.41;5000655;28;20436;-81
2022/01/08 07:33:30;;;;;;;40.08;22.08;;;;;;;0.28;98.68;100686.75;5000466;28;20062;-82
2022/01/08 07:35:56;;;;;;;54.60;25.27;;;;;;;0.24;98.66;100680.94;4999266;28;20096;-80
2022/01/08 07:38:25;;;;;;;59.08;27.42;;;;;;;0.29;98.74;100686.66;4994097;28;20050;-81
2022/01/08 07:40:52;;;;;;;50.95;25.05;;;;;;;0.40;98.66;100692.94;4983797;28;20078;-82
2022/01/08 07:43:24;;;;;;;48.05;24.40;;;;;;;0.45;98.35;100693.50;4985347;28;20054;-83
2022/01/08 07:45:56;;;;;;;48.03;22.57;;;;;;;0.47;98.93;100691.66;4992750;28;20047;-82
2022/01/08 07:48:24;;;;;;;50.83;24.80;;;;;;;0.43;98.45;100678.16;4996537;28;20081;-82
2022/01/08 07:50:53;;;;;;;45.65;21.88;;;;;;;0.47;98.62;100687.34;4993052;28;20114;-82
2022/01/08 07:53:20;;;;;;;42.88;21.55;;;;;;;0.63;98.21;100702.69;4992054;28;20043;-82
2022/01/08 07:55:46;;;;;;;45.75;22.80;;;;;;;0.69;98.34;100710.06;4996193;28;20069;-82
2022/01/08 07:58:13;;;;;;;41.35;20.92;;;;;;;0.73;98.29;100719.25;4991119;28;20107;-83
2022/01/08 08:00:41;;;;;;;44.22;22.48;;;;;;;0.86;98.47;100722.78;4987039;28;20081;-84
2022/01/08 08:03:09;;;;;;;46.33;21.90;;;;;;;0.97;98.39;100720.34;4992598;28;20042;-83
2022/01/08 08:05:36;;;;;;;53.00;27.25;;;;;;;0.99;98.12;100715.94;4988782;28;20050;-84
2022/01/08 08:08:05;;;;;;;42.13;23.05;;;;;;;0.91;98.59;100709.63;4987326;28;20110;-83
2022/01/08 08:10:32;;;;;;;40.90;21.40;;;;;;;0.95;97.98;100704.16;4997253;28;20062;-83
2022/01/08 08:13:02;;;;;;;47.40;21.50;;;;;;;1.06;98.20;100705.25;4996455;28;20047;-84
2022/01/08 08:15:35;;;;;;;43.22;21.48;;;;;;;1.15;98.02;100699.56;4988039;28;20058;-83
2022/01/08 08:18:08;;;;;;;42.00;20.55;;;;;;;1.30;97.39;100703.78;4990167;28;20058;-83
2022/01/08 08:20:35;;;;;;;47.70;22.80;;;;;;;1.54;97.61;100706.56;5001379;28;20056;-83
2022/01/08 08:23:02;;;;;;;44.63;22.25;;;;;;;1.67;96.70;100684.22;4996903;28;20105;-84
2022/01/08 08:25:29;;;;;;;37.20;20.50;;;;;;;1.87;97.31;100698.44;4988112;28;20050;-82
2022/01/08 08:27:55;;;;;;;46.40;22.27;;;;;;;2.05;96.80;100701.56;4992188;28;20106;-83
2022/01/08 08:30:22;;;;;;;38.53;21.02;;;;;;;1.94;95.14;100699.66;5005116;28;20050;-83
2022/01/08 08:32:50;;;;;;;41.45;20.83;;;;;;;1.99;95.56;100707.94;5002806;28;20398;-82
2022/01/08 08:35:21;;;;;;;40.33;20.88;;;;;;;2.12;95.17;100703.66;5013253;23;20042;-82
2022/01/08 08:37:48;;;;;;;39.05;19.45;;;;;;;2.15;94.30;100692.28;4996436;28;20061;-81
2022/01/08 08:40:15;;;;;;;34.85;19.92;;;;;;;2.13;94.13;100702.72;5001433;28;20047;-80
2022/01/08 08:42:42;;;;;;;34.97;19.40;;;;;;;2.03;94.29;100693.91;5004635;28;20074;-80
2022/01/08 08:45:10;;;;;;;36.20;18.50;;;;;;;2.07;94.37;100699.72;5005735;28;20062;-80
2022/01/08 08:47:39;;;;;;;38.95;20.70;;;;;;;2.00;93.96;100700.09;5005247;28;20078;-80
2022/01/08 08:50:08;;;;;;;36.35;20.88;;;;;;;2.04;94.33;100680.09;5008325;28;20053;-81
2022/01/08 08:52:38;;;;;;;30.67;20.08;;;;;;;2.13;93.86;100687.22;5004320;28;20121;-82
2022/01/08 08:55:06;;;;;;;32.67;19.45;;;;;;;2.03;93.45;100682.75;5005272;28;20042;-80
2022/01/08 08:57:33;;;;;;;35.60;17.48;;;;;;;2.07;93.38;100691.97;5007106;28;20042;-81
2022/01/08 09:00:00;;;;;;;38.92;17.75;;;;;;;2.02;93.78;100689.69;5007234;28;20042;-85
2022/01/08 09:02:28;;;;;;;36.78;17.80;;;;;;;2.14;93.69;100693.22;5005612;28;20050;-81
2022/01/08 09:04:55;;;;;;;33.42;16.42;;;;;;;2.13;93.53;100678.66;5009129;28;20057;-82
2022/01/08 09:07:25;;;;;;;32.05;17.08;;;;;;;2.19;93.51;100693.75;5000344;28;20116;-79
2022/01/08 09:09:56;;;;;;;32.63;15.80;;;;;;;2.21;92.78;100687.56;5003035;28;20062;-82
2022/01/08 09:12:23;;;;;;;30.95;15.60;;;;;;;2.31;92.03;100680.88;5009402;28;20050;-80
2022/01/08 09:14:50;;;;;;;32.15;16.08;;;;;;;2.43;92.19;100681.78;5009737;28;20125;-83
2022/01/08 09:17:18;;;;;;;40.13;22.45;;;;;;;2.29;92.23;100682.72;5010399;28;20101;-84
2022/01/08 09:19:45;;;;;;;29.85;16.55;;;;;;;2.49;92.08;100675.38;5009368;28;20054;-81
2022/01/08 09:22:13;;;;;;;33.25;16.33;;;;;;;2.29;92.13;100659.47;5009065;28;20084;-82
2022/01/08 09:24:41;;;;;;;32.47;15.52;;;;;;;2.42;91.61;100676.72;5010366;28;20054;-82
2022/01/08 09:27:09;;;;;;;29.55;14.88;;;;;;;2.45;91.31;100686.84;5012178;28;20054;-81
2022/01/08 09:29:36;;;;;;;28.13;15.25;;;;;;;2.59;90.83;100681.59;5011380;28;20073;-81
2022/01/08 09:32:06;;;;;;;31.15;15.68;;;;;;;2.71;90.70;100685.09;5012270;28;20054;-84
2022/01/08 09:34:33;;;;;;;26.77;15.07;;;;;;;2.86;90.47;100673.69;5006197;28;20042;-82
2022/01/08 09:37:00;;;;;;;25.02;15.25;;;;;;;2.92;89.89;100675.84;5007624;28;20058;-80
2022/01/08 09:39:27;;;;;;;31.15;15.02;;;;;;;2.84;89.71;100675.56;5006183;28;20111;-80
2022/01/08 09:41:54;;;;;;;27.27;14.13;;;;;;;2.88;89.56;100667.47;5005765;28;20054;-81
2022/01/08 09:44:22;;;;;;;23.25;13.63;;;;;;;3.00;88.68;100671.81;5003599;28;20069;-81
2022/01/08 09:46:49;;;;;;;28.00;12.48;;;;;;;2.90;89.54;100665.63;5003293;28;20161;-81
2022/01/08 09:49:15;;;;;;;22.50;13.27;;;;;;;2.90;89.19;100673.38;4997897;28;20093;-79
2022/01/08 09:51:42;;;;;;;24.88;12.35;;;;;;;3.03;88.88;100669.94;4996586;28;20081;-79
2022/01/08 09:54:09;;;;;;;21.55;12.07;;;;;;;3.07;89.04;100671.38;4996400;28;20090;-79
2022/01/08 09:56:35;;;;;;;21.60;11.85;;;;;;;3.04;89.16;100671.59;4996009;28;20092;-81
2022/01/08 09:59:02;;;;;;;25.70;11.93;;;;;;;2.95;89.28;100660.13;4996271;28;20050;-79
2022/01/08 10:01:32;;;;;;;24.00;11.48;;;;;;;2.95;88.86;100653.22;4996516;28;20108;-79
2022/01/08 10:04:00;;;;;;;21.83;11.73;;;;;;;3.05;88.01;100657.75;4996642;28;20142;-78
2022/01/08 10:06:31;;;;;;;19.85;11.30;;;;;;;3.02;87.99;100640.69;4996241;28;20105;-79
2022/01/08 10:08:59;;;;;;;22.58;10.40;;;;;;;3.06;88.16;100646.47;4997346;28;20088;-80
2022/01/08 10:11:28;;;;;;;20.63;11.52;;;;;;;3.07;87.53;100640.38;4998067;28;20369;-80
2022/01/08 10:14:02;;;;;;;17.83;10.07;;;;;;;2.97;88.38;100635.84;4998402;28;20050;-79
2022/01/08 10:19:30;;;;;;;18.88;9.05;;;;;;;3.00;87.71;100619.28;4955103;29;20238;-79
2022/01/08 10:21:58;;;;;;;17.30;8.55;;;;;;;2.94;87.26;100624.88;4953926;29;20079;-78
2022/01/08 10:24:27;;;;;;;15.73;8.05;;;;;;;3.00;86.63;100609.78;4972206;28;20089;-80
2022/01/08 10:27:01;;;;;;;13.50;8.25;;;;;;;3.06;86.40;100612.88;4988325;28;20047;-78
2022/01/08 10:29:28;;;;;;;14.13;7.57;;;;;;;3.06;86.08;100597.34;4991273;28;20076;-79
2022/01/08 10:31:56;;;;;;;15.57;7.65;;;;;;;3.03;86.98;100603.56;4989239;28;20052;-79
2022/01/08 10:34:25;;;;;;;13.45;7.43;;;;;;;3.04;86.96;100594.88;4991976;28;20046;-79
2022/01/08 10:36:59;;;;;;;18.15;9.75;;;;;;;3.06;85.99;100593.00;4991518;28;20045;-79
2022/01/08 10:39:28;;;;;;;17.08;7.97;;;;;;;3.10;85.74;100581.50;4991278;28;20486;-79
2022/01/08 10:41:56;;;;;;;22.63;12.77;;;;;;;3.14;86.36;100577.78;4989182;28;20117;-79
2022/01/08 10:44:24;;;;;;;17.35;12.40;;;;;;;3.29;85.44;100568.09;4993501;28;20126;-79
2022/01/08 10:46:58;;;;;;;17.20;12.95;;;;;;;3.41;84.53;100566.38;4994963;28;20056;-80
2022/01/08 10:49:29;;;;;;;14.57;7.53;;;;;;;3.41;84.81;100564.59;4995158;28;20114;-80
2022/01/08 10:51:57;;;;;;;15.95;7.85;;;;;;;3.53;84.04;100555.94;4997031;28;20124;-81
2022/01/08 10:54:27;;;;;;;13.07;7.65;;;;;;;3.65;83.41;100549.06;4998419;28;20138;-81
2022/01/08 10:56:56;;;;;;;13.35;7.68;;;;;;;3.81;82.95;100553.91;4999334;28;20050;-81
2022/01/08 10:59:26;;;;;;;10.43;6.63;;;;;;;3.91;81.48;100544.50;5001971;28;20228;-81
2022/01/08 11:01:58;;;;;;;11.50;7.05;;;;;;;3.78;81.95;100541.22;5007904;28;20058;-80
2022/01/08 11:04:37;;;;;;;8.88;6.20;;;;;;;3.74;82.71;100530.25;5003193;28;20105;-79
2022/01/08 11:07:10;;;;;;;11.05;6.82;;;;;;;3.72;83.28;100526.97;5003329;28;20058;-80
2022/01/08 11:09:38;;;;;;;13.02;6.32;;;;;;;3.64;80.40;100506.00;5001456;28;20073;-80
2022/01/08 11:12:07;;;;;;;11.32;6.03;;;;;;;3.63;81.48;100504.34;5005128;28;20069;-79
2022/01/08 11:15:01;;;;;;;11.27;6.50;;;;;;;3.64;80.66;100485.31;4999545;28;20058;-79
2022/01/08 11:17:34;;;;;;;12.43;6.95;;;;;;;3.70;81.71;100495.19;4997050;28;20061;-80
2022/01/08 11:20:04;;;;;;;12.10;6.60;;;;;;;3.63;81.53;100481.91;4997247;28;20539;-80
2022/01/08 11:22:37;;;;;;;12.60;6.47;;;;;;;3.74;81.22;100481.09;4997502;28;20050;-80
2022/01/08 11:25:13;;;;;;;18.70;10.60;;;;;;;3.70;80.70;100468.50;4996550;28;20054;-80
2022/01/08 11:27:51;;;;;;;12.30;7.13;;;;;;;3.78;80.50;100466.94;4996541;28;20516;-80
2022/01/08 11:30:41;;;;;;;13.15;7.53;;;;;;;3.81;80.39;100471.06;4990339;28;20046;-78
2022/01/08 11:33:27;;;;;;;11.27;5.97;;;;;;;3.91;80.46;100466.84;4998435;28;21103;-79
2022/01/08 11:35:58;;;;;;;10.13;6.47;;;;;;;3.88;79.34;100451.53;4994213;28;20117;-80
2022/01/08 11:38:33;;;;;;;14.57;5.95;;;;;;;3.78;79.49;100448.84;4997640;28;20153;-80
2022/01/08 11:41:00;;;;;;;13.40;7.05;;;;;;;3.79;79.18;100454.84;5000306;28;20047;-80
2022/01/08 11:43:37;;;;;;;11.98;7.28;;;;;;;3.89;79.01;100441.06;4998243;28;20061;-82
2022/01/08 11:46:09;;;;;;;16.77;5.65;;;;;;;3.92;78.17;100437.44;4998774;28;20140;-80
2022/01/08 11:48:39;;;;;;;;;;;;;;;3.92;78.11;100420.13;5002042;28;20062;-81
2022/01/08 11:51:08;;;;;;;12.25;6.00;;;;;;;3.92;77.86;100427.06;5003295;28;19922;-80
2022/01/08 11:53:49;;;;;;;11.82;5.60;;;;;;;3.89;78.71;100411.78;4999508;28;20081;-80
2022/01/08 11:56:29;;;;;;;10.77;5.45;;;;;;;3.93;78.28;100405.44;4978348;28;20074;-80
2022/01/08 11:59:06;;;;;;;13.57;5.43;;;;;;;4.05;78.68;100394.13;4979751;28;20051;-79
2022/01/08 12:01:38;;;;;;;11.43;5.25;;;;;;;4.10;77.78;100393.75;4981899;28;20102;-80
2022/01/08 12:04:09;;;;;;;10.77;5.30;;;;;;;4.08;77.32;100390.47;4985372;28;20249;-80
2022/01/08 12:07:01;;;;;;;10.50;5.45;;;;;;;4.17;76.95;100390.56;4999460;28;20164;-81
2022/01/08 12:10:10;;;;;;;9.80;5.00;;;;;;;4.14;77.60;100372.69;5002024;28;20061;-81
2022/01/08 12:13:16;;;;;;;11.10;5.50;;;;;;;4.05;78.20;100357.06;5004513;28;20434;-80